createdAt,value
2018-12-15T00:00:14.338Z,1.38
2018-12-15T00:01:14.271Z,1.25
2018-12-15T00:02:14.417Z,1.4
2018-12-15T00:03:14.343Z,1.38
2018-12-15T00:04:14.289Z,1.34
2018-12-15T00:05:14.330Z,1.38
2018-12-15T00:06:14.333Z,1.34
2018-12-15T00:07:14.418Z,1.39
2018-12-15T00:08:14.285Z,1.39
2018-12-15T00:09:14.324Z,1.4
2018-12-15T00:10:14.299Z,1.43
2018-12-15T00:11:14.346Z,1.38
2018-12-15T00:12:14.328Z,1.28
2018-12-15T00:13:14.306Z,1.28
2018-12-15T00:14:14.292Z,1.36
2018-12-15T00:15:14.347Z,1.34
2018-12-15T00:16:14.344Z,1.42
2018-12-15T00:17:14.304Z,1.45
2018-12-15T00:18:14.311Z,1.46
2018-12-15T00:19:14.302Z,1.5
2018-12-15T00:20:14.339Z,1.42
2018-12-15T00:21:14.696Z,1.53
2018-12-15T00:22:14.294Z,1.4
2018-12-15T00:23:14.342Z,1.43
2018-12-15T00:24:14.334Z,1.38
2018-12-15T00:25:14.385Z,1.31
2018-12-15T00:26:14.939Z,1.32
2018-12-15T00:27:14.336Z,1.28
2018-12-15T00:28:14.352Z,1.32
2018-12-15T00:29:14.400Z,1.38
2018-12-15T00:30:14.840Z,1.34
2018-12-15T00:31:14.312Z,1.39
2018-12-15T00:32:15.024Z,1.24
2018-12-15T00:33:14.369Z,1.36
2018-12-15T00:34:14.376Z,1.34
2018-12-15T00:35:14.380Z,1.38
2018-12-15T00:36:14.384Z,1.38
2018-12-15T00:37:14.371Z,1.42
2018-12-15T00:38:14.356Z,1.39
2018-12-15T00:39:14.358Z,1.46
2018-12-15T00:40:14.372Z,1.32
2018-12-15T00:41:14.359Z,1.46
2018-12-15T00:42:14.468Z,1.4
2018-12-15T00:43:14.331Z,1.4
2018-12-15T00:44:14.473Z,1.4
2018-12-15T00:45:18.925Z,1.45
2018-12-15T00:46:14.350Z,1.45
2018-12-15T00:47:40.928Z,1.4
2018-12-15T00:52:32.114Z,1.38
2018-12-15T00:52:44.080Z,1.3
2018-12-15T00:53:44.065Z,1.46
2018-12-15T00:54:44.088Z,1.46
2018-12-15T00:55:44.164Z,1.38
2018-12-15T00:56:44.119Z,1.4
2018-12-15T00:57:44.092Z,1.48
2018-12-15T00:58:44.055Z,1.49
2018-12-15T00:59:44.251Z,1.46
2018-12-15T01:00:44.142Z,1.49
2018-12-15T01:01:44.116Z,1.43
2018-12-15T01:02:44.091Z,1.5
2018-12-15T01:03:44.086Z,1.49
2018-12-15T01:04:44.105Z,1.48
2018-12-15T01:05:44.085Z,1.42
2018-12-15T01:06:44.076Z,1.4
2018-12-15T01:07:44.159Z,1.46
2018-12-15T01:12:14.230Z,1.42
2018-12-15T01:13:14.228Z,1.49
2018-12-15T01:14:14.155Z,1.45
2018-12-15T01:15:14.178Z,1.58
2018-12-15T01:16:14.744Z,1.57
2018-12-15T01:17:20.280Z,1.46
2018-12-15T01:18:14.153Z,1.52
2018-12-15T01:19:14.134Z,1.46
2018-12-15T01:20:20.724Z,1.49
2018-12-15T01:21:14.216Z,1.56
2018-12-15T01:22:14.173Z,1.6
2018-12-15T01:23:14.233Z,1.56
2018-12-15T01:24:14.178Z,1.53
2018-12-15T01:25:14.181Z,1.46
2018-12-15T01:26:14.146Z,1.57
2018-12-15T01:27:14.212Z,1.46
2018-12-15T01:28:14.195Z,1.45
2018-12-15T01:29:14.170Z,1.53
2018-12-15T01:30:14.211Z,1.43
2018-12-15T01:31:14.184Z,1.52
2018-12-15T01:32:14.572Z,1.46
2018-12-15T01:33:44.166Z,1.46
2018-12-15T01:34:14.185Z,1.49
2018-12-15T01:35:25.695Z,1.45
2018-12-15T01:36:14.232Z,1.38
2018-12-15T01:37:14.231Z,1.4
2018-12-15T01:38:14.213Z,1.39
2018-12-15T01:39:14.180Z,1.38
2018-12-15T01:40:14.238Z,1.43
2018-12-15T01:41:14.172Z,1.4
2018-12-15T01:42:14.331Z,1.36
2018-12-15T01:43:14.215Z,1.32
2018-12-15T01:44:14.212Z,1.34
2018-12-15T01:45:14.261Z,1.49
2018-12-15T01:46:58.174Z,1.43
2018-12-15T01:47:14.199Z,1.39
2018-12-15T01:48:29.947Z,1.52
2018-12-15T01:49:14.227Z,1.43
2018-12-15T01:50:43.101Z,1.36
2018-12-15T01:51:14.230Z,1.38
2018-12-15T01:52:19.008Z,1.42
2018-12-15T01:53:16.715Z,1.28
2018-12-15T01:54:25.699Z,1.42
2018-12-15T01:55:38.758Z,1.39
2018-12-15T01:56:30.528Z,1.36
2018-12-15T01:57:20.719Z,1.28
2018-12-15T01:58:14.258Z,1.39
2018-12-15T01:59:14.264Z,1.32
2018-12-15T02:00:14.304Z,1.36
2018-12-15T02:01:14.279Z,1.39
2018-12-15T02:02:14.243Z,1.4
2018-12-15T02:03:14.703Z,1.38
2018-12-15T02:04:14.260Z,1.36
2018-12-15T02:05:17.847Z,1.34
2018-12-15T02:06:14.269Z,1.42
2018-12-15T02:07:14.264Z,1.49
2018-12-15T02:08:14.249Z,1.49
2018-12-15T02:09:14.329Z,1.39
2018-12-15T02:10:14.283Z,1.46
2018-12-15T02:11:14.250Z,1.46
2018-12-15T02:12:14.235Z,1.48
2018-12-15T02:13:14.257Z,1.38
2018-12-15T02:14:14.259Z,1.38
2018-12-15T02:15:45.528Z,1.4
2018-12-15T02:16:14.834Z,1.4
2018-12-15T02:17:14.289Z,1.32
2018-12-15T02:18:15.532Z,1.42
2018-12-15T02:19:14.534Z,1.39
2018-12-15T02:20:14.307Z,1.4
2018-12-15T02:21:14.241Z,1.39
2018-12-15T02:22:14.255Z,1.42
2018-12-15T02:23:14.353Z,1.36
2018-12-15T02:24:14.258Z,1.27
2018-12-15T02:28:44.703Z,1.07
2018-12-15T02:29:44.739Z,1.07
2018-12-15T02:31:50.450Z,1.12
2018-12-15T02:32:02.663Z,1.12
2018-12-15T02:33:02.475Z,1.03
2018-12-15T02:34:02.458Z,1.09
2018-12-15T02:35:02.416Z,1.16
2018-12-15T02:36:02.471Z,1.22
2018-12-15T02:37:02.491Z,1.22
2018-12-15T02:38:02.448Z,1.09
2018-12-15T02:39:02.500Z,1.12
2018-12-15T02:40:02.537Z,1.2
2018-12-15T02:41:02.426Z,1.24
2018-12-15T02:42:02.467Z,1.06
2018-12-15T02:43:02.475Z,1.25
2018-12-15T02:44:02.603Z,1.2
2018-12-15T02:45:02.647Z,1.18
2018-12-15T02:46:02.725Z,1.28
2018-12-15T02:47:02.456Z,1.36
2018-12-15T02:48:02.552Z,1.36
2018-12-15T02:49:02.521Z,1.34
2018-12-15T02:50:02.561Z,1.32
2018-12-15T02:51:02.525Z,1.38
2018-12-15T02:52:02.841Z,1.36
2018-12-15T02:53:02.481Z,1.38
2018-12-15T02:54:02.479Z,1.4
2018-12-15T02:57:09.559Z,1.42
2018-12-15T02:57:21.884Z,1.4
2018-12-15T02:58:21.568Z,1.43
2018-12-15T02:59:22.072Z,1.39
2018-12-15T03:00:21.508Z,1.45
2018-12-15T03:01:21.536Z,1.42
2018-12-15T03:02:21.578Z,1.4
2018-12-15T03:03:21.525Z,1.49
2018-12-15T03:04:21.611Z,1.52
2018-12-15T03:05:21.620Z,1.46
2018-12-15T03:06:21.566Z,1.49
2018-12-15T03:07:21.605Z,1.38
2018-12-15T03:08:22.065Z,1.39
2018-12-15T03:09:21.548Z,1.46
2018-12-15T03:10:21.594Z,1.46
2018-12-15T03:11:21.588Z,1.4
2018-12-15T03:12:21.546Z,1.42
2018-12-15T03:13:21.798Z,1.36
2018-12-15T03:14:21.538Z,1.42
2018-12-15T03:15:21.584Z,1.48
2018-12-15T03:16:21.542Z,1.39
2018-12-15T03:17:25.494Z,1.4
2018-12-15T03:18:21.572Z,1.46
2018-12-15T03:19:21.587Z,1.48
2018-12-15T03:20:21.578Z,1.46
2018-12-15T03:21:21.911Z,1.34
2018-12-15T03:22:21.674Z,1.3
2018-12-15T03:23:21.553Z,1.38
2018-12-15T03:24:21.584Z,1.5
2018-12-15T03:25:21.657Z,1.4
2018-12-15T03:26:21.576Z,1.5
2018-12-15T03:27:23.025Z,1.46
2018-12-15T03:28:21.609Z,1.42
2018-12-15T03:29:21.647Z,1.4
2018-12-15T03:30:21.594Z,1.39
2018-12-15T03:31:21.665Z,1.4
2018-12-15T03:32:21.621Z,1.39
2018-12-15T03:33:22.420Z,1.4
2018-12-15T03:34:21.717Z,1.3
2018-12-15T03:35:21.583Z,1.28
2018-12-15T03:37:26.175Z,1.32
2018-12-15T03:37:38.149Z,1.28
2018-12-15T03:38:38.147Z,1.27
2018-12-15T03:39:38.169Z,1.31
2018-12-15T03:40:38.133Z,1.25
2018-12-15T03:41:38.137Z,1.18
2018-12-15T03:42:38.146Z,1.12
2018-12-15T03:43:38.133Z,1.18
2018-12-15T03:44:38.184Z,1.06
2018-12-15T03:45:38.154Z,1.06
2018-12-15T03:46:38.162Z,1.2
2018-12-15T03:47:38.209Z,1.18
2018-12-15T03:48:38.155Z,1.1
2018-12-15T03:49:38.310Z,1.04
2018-12-15T03:50:38.178Z,1.18
2018-12-15T03:51:38.177Z,1.13
2018-12-15T03:52:38.153Z,1.06
2018-12-15T03:53:38.243Z,0.99
2018-12-15T03:54:38.176Z,1.02
2018-12-15T03:55:38.148Z,0.99
2018-12-15T03:56:38.239Z,1.03
2018-12-15T03:57:38.203Z,1.13
2018-12-15T03:58:38.191Z,1.09
2018-12-15T03:59:38.211Z,1.06
2018-12-15T04:00:38.141Z,1.12
2018-12-15T04:01:38.202Z,1.24
2018-12-15T04:02:38.497Z,1.27
2018-12-15T04:03:38.173Z,1.28
2018-12-15T04:04:38.243Z,1.06
2018-12-15T04:05:38.175Z,1.18
2018-12-15T04:06:38.289Z,1.24
2018-12-15T04:07:38.156Z,1.18
2018-12-15T04:08:38.248Z,1.13
2018-12-15T04:09:38.216Z,1.18
2018-12-15T04:10:38.207Z,1.27
2018-12-15T04:11:38.222Z,1.28
2018-12-15T04:12:38.186Z,1.31
2018-12-15T04:13:38.147Z,1.31
2018-12-15T04:14:38.175Z,1.28
2018-12-15T04:15:38.240Z,1.38
2018-12-15T04:16:38.288Z,1.43
2018-12-15T04:17:38.293Z,1.34
2018-12-15T04:18:38.252Z,1.39
2018-12-15T04:19:38.497Z,1.28
2018-12-15T04:20:38.221Z,1.25
2018-12-15T04:21:38.187Z,1.32
2018-12-15T04:22:38.177Z,1.5
2018-12-15T04:23:38.258Z,1.4
2018-12-15T04:24:38.221Z,1.46
2018-12-15T04:25:38.190Z,1.38
2018-12-15T04:26:38.268Z,1.43
2018-12-15T04:27:38.384Z,1.42
2018-12-15T04:28:38.247Z,1.38
2018-12-15T04:29:38.194Z,1.4
2018-12-15T04:30:38.338Z,1.45
2018-12-15T04:31:38.415Z,1.43
2018-12-15T04:32:44.907Z,1.42
2018-12-15T04:33:38.224Z,1.45
2018-12-15T04:34:38.296Z,1.39
2018-12-15T04:35:38.192Z,1.43
2018-12-15T04:36:38.238Z,1.46
2018-12-15T04:37:38.553Z,1.45
2018-12-15T04:38:38.946Z,1.48
2018-12-15T04:39:38.221Z,1.49
2018-12-15T04:40:38.345Z,1.4
2018-12-15T04:41:38.233Z,1.39
2018-12-15T04:42:38.266Z,1.46
2018-12-15T04:43:38.228Z,1.38
2018-12-15T04:44:38.254Z,1.38
2018-12-15T04:45:38.288Z,1.42
2018-12-15T04:46:38.306Z,1.43
2018-12-15T04:47:38.245Z,1.39
2018-12-15T04:48:38.276Z,1.27
2018-12-15T04:49:38.253Z,1.4
2018-12-15T04:50:38.297Z,1.31
2018-12-15T04:51:38.285Z,1.28
2018-12-15T04:52:38.260Z,1.38
2018-12-15T04:53:38.302Z,1.39
2018-12-15T04:54:38.304Z,1.32
2018-12-15T04:55:38.330Z,1.43
2018-12-15T04:56:38.287Z,1.36
2018-12-15T04:57:38.294Z,1.36
2018-12-15T04:58:45.042Z,1.39
2018-12-15T04:59:38.273Z,1.39
2018-12-15T05:00:38.304Z,1.31
2018-12-15T05:02:43.898Z,1.28
2018-12-15T05:02:56.443Z,1.36
2018-12-15T05:03:56.084Z,1.27
2018-12-15T05:04:56.070Z,1.34
2018-12-15T05:05:56.148Z,1.34
2018-12-15T05:06:56.216Z,1.27
2018-12-15T05:07:56.163Z,1.32
2018-12-15T05:08:56.095Z,1.3
2018-12-15T05:09:56.177Z,1.25
2018-12-15T05:10:56.044Z,1.22
2018-12-15T05:11:56.193Z,1.28
2018-12-15T05:12:56.482Z,1.3
2018-12-15T05:13:56.143Z,1.34
2018-12-15T05:14:56.081Z,1.28
2018-12-15T05:15:56.110Z,1.4
2018-12-15T05:16:56.218Z,1.28
2018-12-15T05:17:56.066Z,1.34
2018-12-15T05:18:56.239Z,1.28
2018-12-15T05:19:56.094Z,1.36
2018-12-15T05:20:56.226Z,1.24
2018-12-15T05:21:56.153Z,1.39
2018-12-15T05:22:56.169Z,1.28
2018-12-15T05:23:56.097Z,1.25
2018-12-15T05:24:56.175Z,1.34
2018-12-15T05:25:56.194Z,1.32
2018-12-15T05:28:01.022Z,1.28
2018-12-15T05:28:13.117Z,1.34
2018-12-15T05:29:13.063Z,1.27
2018-12-15T05:33:42.012Z,1.25
2018-12-15T05:34:41.900Z,1.36
2018-12-15T05:37:49.163Z,1.42
2018-12-15T05:38:01.245Z,1.34
2018-12-15T05:39:01.159Z,1.3
2018-12-15T05:40:01.169Z,1.34
2018-12-15T05:43:08.299Z,1.27
2018-12-15T05:43:20.312Z,1.34
2018-12-15T05:44:20.296Z,1.25
2018-12-15T05:45:20.270Z,1.24
2018-12-15T05:46:20.376Z,1.21
2018-12-15T05:47:20.280Z,1.27
2018-12-15T05:48:25.049Z,1.38
2018-12-15T05:49:20.323Z,1.34
2018-12-15T05:50:20.254Z,1.22
2018-12-15T05:51:20.280Z,1.31
2018-12-15T05:52:20.269Z,1.27
2018-12-15T05:53:20.334Z,1.27
2018-12-15T05:54:20.285Z,1.28
2018-12-15T05:55:20.389Z,1.28
2018-12-15T05:56:20.249Z,1.21
2018-12-15T05:57:20.304Z,1.28
2018-12-15T05:58:20.288Z,1.21
2018-12-15T05:59:20.361Z,1.28
2018-12-15T06:00:20.351Z,1.27
2018-12-15T06:01:20.268Z,1.34
2018-12-15T06:02:20.262Z,1.28
2018-12-15T06:03:20.383Z,1.31
2018-12-15T06:04:20.288Z,1.31
2018-12-15T06:09:38.180Z,1.3
2018-12-15T06:09:50.150Z,1.31
2018-12-15T06:10:50.141Z,1.34
2018-12-15T06:11:54.210Z,1.14
2018-12-15T06:12:50.115Z,1.21
2018-12-15T06:13:50.106Z,1.24
2018-12-15T06:14:50.118Z,1.28
2018-12-15T06:15:50.146Z,1.28
2018-12-15T06:16:50.218Z,1.24
2018-12-15T06:17:50.058Z,1.25
2018-12-15T06:18:50.137Z,1.27
2018-12-15T06:19:50.098Z,1.3
2018-12-15T06:20:50.123Z,1.3
2018-12-15T06:21:50.127Z,1.27
2018-12-15T06:22:50.105Z,1.28
2018-12-15T06:23:50.229Z,1.3
2018-12-15T06:29:07.088Z,1.21
2018-12-15T06:29:19.065Z,1.27
2018-12-15T06:30:19.047Z,1.24
2018-12-15T06:31:18.991Z,1.21
2018-12-15T06:32:19.221Z,1.22
2018-12-15T06:33:19.127Z,1.12
2018-12-15T06:34:19.083Z,1.2
2018-12-15T06:35:19.050Z,1.16
2018-12-15T06:36:19.079Z,1.18
2018-12-15T06:37:19.103Z,1.24
2018-12-15T06:38:19.021Z,1.21
2018-12-15T06:39:19.063Z,1.22
2018-12-15T06:40:18.994Z,1.24
2018-12-15T06:41:19.043Z,1.25
2018-12-15T06:42:19.068Z,1.25
2018-12-15T06:43:19.131Z,1.34
2018-12-15T06:44:19.087Z,1.28
2018-12-15T06:45:19.093Z,1.27
2018-12-15T06:46:19.037Z,1.27
2018-12-15T06:47:39.941Z,1.22
2018-12-15T06:48:19.205Z,1.3
2018-12-15T06:49:19.214Z,1.28
2018-12-15T06:50:19.089Z,1.27
2018-12-15T06:51:19.154Z,1.31
2018-12-15T06:52:19.089Z,1.25
2018-12-15T06:53:19.127Z,1.24
2018-12-15T06:54:19.030Z,1.32
2018-12-15T06:55:19.329Z,1.32
2018-12-15T06:56:19.102Z,1.27
2018-12-15T06:57:19.048Z,1.27
2018-12-15T06:58:19.054Z,1.31
2018-12-15T06:59:19.167Z,1.36
2018-12-15T07:00:19.095Z,1.3
2018-12-15T07:01:19.078Z,1.3
2018-12-15T07:02:19.056Z,1.28
2018-12-15T07:03:19.071Z,1.2
2018-12-15T07:04:19.107Z,1.18
2018-12-15T07:09:36.458Z,1.25
2018-12-15T07:09:48.942Z,1.32
2018-12-15T07:10:48.539Z,1.2
2018-12-15T07:11:48.584Z,1.22
2018-12-15T07:12:48.526Z,1.3
2018-12-15T07:13:48.599Z,1.25
2018-12-15T07:14:48.561Z,1.22
2018-12-15T07:16:14.171Z,1.2
2018-12-15T07:16:48.617Z,1.16
2018-12-15T07:17:48.560Z,1.3
2018-12-15T07:18:50.616Z,1.27
2018-12-15T07:19:48.511Z,1.3
2018-12-15T07:20:48.507Z,1.22
2018-12-15T07:21:48.619Z,1.25
2018-12-15T07:22:48.554Z,1.27
2018-12-15T07:23:48.675Z,1.28
2018-12-15T07:24:48.537Z,1.31
2018-12-15T07:25:48.548Z,1.12
2018-12-15T07:26:48.479Z,1.25
2018-12-15T07:27:48.514Z,1.18
2018-12-15T07:28:48.521Z,1.22
2018-12-15T07:29:48.527Z,1.22
2018-12-15T07:30:48.504Z,1.22
2018-12-15T07:31:48.679Z,1.22
2018-12-15T07:33:53.099Z,1.24
2018-12-15T07:34:05.575Z,1.25
2018-12-15T07:35:06.932Z,1.24
2018-12-15T07:36:05.196Z,1.25
2018-12-15T07:37:05.112Z,1.2
2018-12-15T07:38:05.247Z,1.42
2018-12-15T07:39:05.129Z,1.22
2018-12-15T07:40:25.919Z,1.25
2018-12-15T07:41:37.811Z,1.18
2018-12-15T07:42:35.671Z,1.14
2018-12-15T07:43:40.297Z,1.21
2018-12-15T07:44:35.637Z,1.18
2018-12-15T07:45:35.660Z,1.13
2018-12-15T07:46:35.687Z,1.14
2018-12-15T07:47:35.680Z,1.14
2018-12-15T07:48:35.649Z,1.13
2018-12-15T07:49:35.655Z,1.18
2018-12-15T07:50:35.697Z,1.14
2018-12-15T07:51:35.671Z,1.24
2018-12-15T07:52:35.753Z,1.24
2018-12-15T07:53:38.651Z,1.18
2018-12-15T07:56:47.571Z,1.3
2018-12-15T07:57:46.844Z,1.27
2018-12-15T07:58:46.744Z,1.14
2018-12-15T07:59:46.726Z,1.3
2018-12-15T08:00:46.743Z,1.21
2018-12-15T08:01:46.768Z,1.24
2018-12-15T08:02:46.750Z,1.24
2018-12-15T08:03:46.751Z,1.2
2018-12-15T08:04:46.721Z,1.21
2018-12-15T08:05:46.808Z,1.31
2018-12-15T08:06:46.803Z,1.28
2018-12-15T08:07:46.844Z,1.34
2018-12-15T08:09:53.814Z,1.22
2018-12-15T08:10:06.314Z,1.3
2018-12-15T08:11:06.180Z,1.22
2018-12-15T08:12:05.844Z,1.27
2018-12-15T08:13:05.989Z,1.27
2018-12-15T08:14:06.025Z,1.38
2018-12-15T08:15:06.002Z,1.32
2018-12-15T08:16:05.938Z,1.24
2018-12-15T08:17:05.945Z,1.45
2018-12-15T08:18:05.984Z,1.3
2018-12-15T08:19:06.037Z,1.24
2018-12-15T08:20:05.994Z,1.22
2018-12-15T08:21:06.000Z,1.28
2018-12-15T08:22:05.975Z,1.36
2018-12-15T08:23:06.157Z,1.28
2018-12-15T08:24:07.000Z,1.3
2018-12-15T08:25:05.996Z,1.31
2018-12-15T08:26:06.060Z,1.39
2018-12-15T08:27:06.190Z,1.3
2018-12-15T08:28:05.996Z,1.3
2018-12-15T08:29:05.936Z,1.3
2018-12-15T08:30:06.072Z,1.38
2018-12-15T08:31:05.963Z,1.42
2018-12-15T08:32:05.942Z,1.49
2018-12-15T08:33:11.941Z,1.4
2018-12-15T08:34:05.991Z,1.42
2018-12-15T08:35:05.928Z,1.46
2018-12-15T08:36:06.000Z,1.4
2018-12-15T08:37:19.218Z,1.43
2018-12-15T08:38:08.129Z,1.46
2018-12-15T08:39:27.250Z,1.43
2018-12-15T08:40:41.219Z,1.42
2018-12-15T08:41:42.833Z,1.48
2018-12-15T08:42:09.516Z,1.48
2018-12-15T08:43:29.945Z,1.53
2018-12-15T08:44:21.087Z,1.45
2018-12-15T08:45:28.576Z,1.43
2018-12-15T08:46:20.269Z,1.49
2018-12-15T08:47:09.551Z,1.48
2018-12-15T08:48:15.822Z,1.4
2018-12-15T08:49:10.601Z,1.49
2018-12-15T08:50:11.016Z,1.46
2018-12-15T08:51:09.473Z,1.48
2018-12-15T08:54:16.805Z,1.58
2018-12-15T08:54:36.568Z,1.61
2018-12-15T08:55:28.834Z,1.58
2018-12-15T08:56:31.221Z,1.6
2018-12-15T08:57:28.805Z,1.57
2018-12-15T08:59:48.173Z,1.64
2018-12-15T09:00:48.247Z,1.64
2018-12-15T09:01:48.144Z,1.67
2018-12-15T09:02:48.224Z,1.61
2018-12-15T09:03:48.141Z,1.64
2018-12-15T09:04:48.216Z,1.49
2018-12-15T09:05:48.425Z,1.49
2018-12-15T09:06:48.248Z,1.61
2018-12-15T09:07:48.161Z,1.56
2018-12-15T09:08:48.173Z,1.53
2018-12-15T09:09:48.200Z,1.57
2018-12-15T09:10:48.105Z,1.56
2018-12-15T09:11:48.164Z,1.57
2018-12-15T09:12:48.154Z,1.61
2018-12-15T09:13:48.121Z,1.57
2018-12-15T09:14:48.167Z,1.64
2018-12-15T09:15:48.133Z,1.48
2018-12-15T09:17:46.990Z,1.57
2018-12-15T09:17:59.073Z,1.52
2018-12-15T09:20:02.513Z,1.61
2018-12-15T09:22:42.757Z,1.56
2018-12-15T09:23:03.291Z,1.61
2018-12-15T09:24:03.240Z,1.6
2018-12-15T09:25:03.243Z,1.56
2018-12-15T09:26:16.825Z,1.66
2018-12-15T09:27:03.271Z,1.61
2018-12-15T09:28:03.236Z,1.68
2018-12-15T09:29:03.315Z,1.66
2018-12-15T09:30:03.464Z,1.61
2018-12-15T09:31:03.333Z,1.58
2018-12-15T09:32:03.322Z,1.76
2018-12-15T09:33:03.299Z,1.7
2018-12-15T09:34:03.291Z,1.66
2018-12-15T09:35:03.249Z,1.68
2018-12-15T09:36:03.256Z,1.74
2018-12-15T09:37:03.284Z,1.71
2018-12-15T09:38:03.311Z,1.74
2018-12-15T09:39:03.266Z,1.7
2018-12-15T09:40:03.233Z,1.79
2018-12-15T09:41:03.253Z,1.74
2018-12-15T09:42:03.325Z,1.81
2018-12-15T09:43:03.438Z,1.71
2018-12-15T09:44:08.306Z,1.78
2018-12-15T09:45:10.218Z,1.79
2018-12-15T09:46:03.635Z,1.67
2018-12-15T09:47:03.337Z,1.63
2018-12-15T09:48:06.847Z,1.63
2018-12-15T09:49:03.305Z,1.63
2018-12-15T09:50:04.374Z,1.74
2018-12-15T09:51:03.324Z,1.71
2018-12-15T09:52:05.862Z,1.76
2018-12-15T09:53:03.743Z,1.78
2018-12-15T09:54:03.274Z,1.71
2018-12-15T09:55:03.436Z,1.78
2018-12-15T09:56:03.397Z,1.78
2018-12-15T09:57:03.268Z,1.7
2018-12-15T09:58:03.287Z,1.7
2018-12-15T09:59:03.309Z,1.7
2018-12-15T10:00:03.273Z,1.63
2018-12-15T10:01:03.299Z,1.68
2018-12-15T10:02:03.490Z,1.71
2018-12-15T10:03:03.342Z,1.66
2018-12-15T10:04:03.256Z,1.71
2018-12-15T10:05:03.352Z,1.79
2018-12-15T10:06:03.442Z,1.74
2018-12-15T10:07:09.147Z,1.76
2018-12-15T10:08:03.310Z,1.7
2018-12-15T10:09:03.238Z,1.63
2018-12-15T10:10:03.308Z,1.68
2018-12-15T10:11:04.306Z,1.66
2018-12-15T10:12:03.339Z,1.61
2018-12-15T10:13:03.298Z,1.68
2018-12-15T10:14:03.411Z,1.67
2018-12-15T10:15:03.309Z,1.68
2018-12-15T10:16:03.317Z,1.68
2018-12-15T10:17:03.424Z,1.7
2018-12-15T10:18:11.948Z,1.75
2018-12-15T10:19:03.437Z,1.61
2018-12-15T10:20:03.340Z,1.75
2018-12-15T10:21:03.349Z,1.7
2018-12-15T10:22:03.431Z,1.66
2018-12-15T10:23:03.523Z,1.82
2018-12-15T10:24:03.337Z,1.74
2018-12-15T10:25:03.486Z,1.67
2018-12-15T10:26:03.382Z,1.63
2018-12-15T10:27:03.500Z,1.61
2018-12-15T10:28:03.824Z,1.68
2018-12-15T10:29:03.468Z,1.53
2018-12-15T10:30:03.517Z,1.63
2018-12-15T10:31:03.377Z,1.63
2018-12-15T10:32:03.422Z,1.49
2018-12-15T10:33:03.386Z,1.49
2018-12-15T10:34:03.498Z,1.57
2018-12-15T10:35:03.403Z,1.6
2018-12-15T10:36:03.378Z,1.53
2018-12-15T10:37:04.434Z,1.63
2018-12-15T10:38:03.473Z,1.56
2018-12-15T10:39:03.431Z,1.58
2018-12-15T10:40:03.432Z,1.61
2018-12-15T10:41:03.411Z,1.57
2018-12-15T10:42:03.420Z,1.61
2018-12-15T10:43:03.473Z,1.64
2018-12-15T10:44:03.432Z,1.61
2018-12-15T10:45:03.476Z,1.68
2018-12-15T10:46:03.376Z,1.7
2018-12-15T10:47:03.394Z,1.58
2018-12-15T10:48:03.365Z,1.68
2018-12-15T10:49:03.338Z,1.66
2018-12-15T10:50:03.376Z,1.68
2018-12-15T10:51:03.372Z,1.6
2018-12-15T10:52:03.451Z,1.63
2018-12-15T10:53:03.458Z,1.64
2018-12-15T10:54:03.362Z,1.7
2018-12-15T10:55:03.389Z,1.82
2018-12-15T10:56:03.357Z,1.67
2018-12-15T10:57:03.468Z,1.7
2018-12-15T10:58:03.420Z,1.74
2018-12-15T10:59:03.403Z,1.67
2018-12-15T11:00:03.434Z,1.71
2018-12-15T11:01:03.386Z,1.68
2018-12-15T11:02:03.376Z,1.66
2018-12-15T11:03:03.454Z,1.63
2018-12-15T11:04:06.810Z,1.61
2018-12-15T11:05:03.327Z,1.64
2018-12-15T11:06:03.444Z,1.68
2018-12-15T11:07:03.366Z,1.64
2018-12-15T11:08:03.564Z,1.61
2018-12-15T11:09:03.466Z,1.66
2018-12-15T11:10:03.478Z,1.68
2018-12-15T11:11:03.578Z,1.71
2018-12-15T11:12:03.446Z,1.78
2018-12-15T11:13:03.448Z,1.7
2018-12-15T11:14:03.423Z,1.64
2018-12-15T11:15:03.534Z,1.74
2018-12-15T11:16:03.407Z,1.74
2018-12-15T11:17:03.416Z,1.79
2018-12-15T11:18:06.491Z,1.74
2018-12-15T11:19:03.466Z,1.85
2018-12-15T11:20:03.524Z,1.88
2018-12-15T11:21:03.544Z,1.92
2018-12-15T11:22:03.408Z,2.07
2018-12-15T11:23:03.466Z,2.07
2018-12-15T11:24:03.464Z,2
2018-12-15T11:25:03.426Z,1.98
2018-12-15T11:26:03.445Z,2.05
2018-12-15T11:27:03.410Z,2.05
2018-12-15T11:28:03.486Z,1.97
2018-12-15T11:29:03.408Z,1.86
2018-12-15T11:30:03.980Z,2
2018-12-15T11:31:03.434Z,1.95
2018-12-15T11:32:03.529Z,1.89
2018-12-15T11:33:03.689Z,1.95
2018-12-15T11:34:03.486Z,1.98
2018-12-15T11:35:03.499Z,1.85
2018-12-15T11:36:03.781Z,1.81
2018-12-15T11:37:03.475Z,1.86
2018-12-15T11:38:03.467Z,1.86
2018-12-15T11:39:03.446Z,1.82
2018-12-15T11:40:03.733Z,1.95
2018-12-15T11:41:03.505Z,2.07
2018-12-15T11:42:03.444Z,1.97
2018-12-15T11:43:03.588Z,1.92
2018-12-15T11:44:03.579Z,1.95
2018-12-15T11:45:03.462Z,1.88
2018-12-15T11:46:03.469Z,1.97
2018-12-15T11:47:03.558Z,1.89
2018-12-15T11:48:03.495Z,1.89
2018-12-15T11:49:03.733Z,1.81
2018-12-15T11:50:04.398Z,1.85
2018-12-15T11:51:04.532Z,1.75
2018-12-15T11:52:03.441Z,1.88
2018-12-15T11:53:03.521Z,1.84
2018-12-15T11:54:04.614Z,1.86
2018-12-15T11:55:03.543Z,1.81
2018-12-15T11:56:03.527Z,1.74
2018-12-15T11:57:03.555Z,1.66
2018-12-15T11:58:04.303Z,1.82
2018-12-15T11:59:03.491Z,1.89
2018-12-15T12:00:03.479Z,1.82
2018-12-15T12:01:03.533Z,1.79
2018-12-15T12:02:03.566Z,1.88
2018-12-15T12:03:03.759Z,1.93
2018-12-15T12:04:08.620Z,1.81
2018-12-15T12:05:03.490Z,1.81
2018-12-15T12:06:03.638Z,1.89
2018-12-15T12:07:03.519Z,1.81
2018-12-15T12:08:03.999Z,1.89
2018-12-15T12:09:04.478Z,1.86
2018-12-15T12:10:03.593Z,1.84
2018-12-15T12:11:03.672Z,1.95
2018-12-15T12:12:03.706Z,1.86
2018-12-15T12:13:03.660Z,1.86
2018-12-15T12:14:07.199Z,1.89
2018-12-15T12:15:03.928Z,1.85
2018-12-15T12:16:03.561Z,1.84
2018-12-15T12:17:03.613Z,1.82
2018-12-15T12:18:07.606Z,1.78
2018-12-15T12:19:03.548Z,1.84
2018-12-15T12:20:03.569Z,1.64
2018-12-15T12:21:03.693Z,1.79
2018-12-15T12:22:03.603Z,1.79
2018-12-15T12:23:03.692Z,1.81
2018-12-15T12:24:03.580Z,1.74
2018-12-15T12:25:03.592Z,1.78
2018-12-15T12:26:03.593Z,1.67
2018-12-15T12:27:05.012Z,1.74
2018-12-15T12:28:16.731Z,1.64
2018-12-15T12:29:12.251Z,1.76
2018-12-15T12:30:03.669Z,1.86
2018-12-15T12:31:03.655Z,1.84
2018-12-15T12:32:03.582Z,1.85
2018-12-15T12:33:05.155Z,1.75
2018-12-15T12:34:03.613Z,1.82
2018-12-15T12:35:03.552Z,1.7
2018-12-15T12:36:03.595Z,1.81
2018-12-15T12:37:03.637Z,1.92
2018-12-15T12:38:03.678Z,1.84
2018-12-15T12:39:03.694Z,1.86
2018-12-15T12:40:03.741Z,1.76
2018-12-15T12:41:03.664Z,1.82
2018-12-15T12:42:03.631Z,1.82
2018-12-15T12:43:03.643Z,1.79
2018-12-15T12:44:03.616Z,1.86
2018-12-15T12:45:04.113Z,1.85
2018-12-15T12:46:03.654Z,1.84
2018-12-15T12:47:03.640Z,1.85
2018-12-15T12:48:03.639Z,1.82
2018-12-15T12:49:03.713Z,1.74
2018-12-15T12:50:03.653Z,1.79
2018-12-15T12:51:03.731Z,1.86
2018-12-15T12:52:03.633Z,1.89
2018-12-15T12:53:03.655Z,2.12
2018-12-15T12:54:03.650Z,2.04
2018-12-15T12:55:03.693Z,1.85
2018-12-15T12:56:03.623Z,1.86
2018-12-15T12:57:03.734Z,1.81
2018-12-15T12:58:03.799Z,1.71
2018-12-15T12:59:03.768Z,1.86
2018-12-15T13:00:38.534Z,1.74
2018-12-15T13:01:03.740Z,1.85
2018-12-15T13:02:04.112Z,1.82
2018-12-15T13:03:12.067Z,1.86
2018-12-15T13:04:03.778Z,1.84
2018-12-15T13:05:03.649Z,1.78
2018-12-15T13:06:03.585Z,1.82
2018-12-15T13:07:03.740Z,1.86
2018-12-15T13:08:03.635Z,1.84
2018-12-15T13:09:03.608Z,1.86
2018-12-15T13:10:03.719Z,1.79
2018-12-15T13:11:03.687Z,1.81
2018-12-15T13:12:03.667Z,1.79
2018-12-15T13:13:03.698Z,1.78
2018-12-15T13:14:03.706Z,1.78
2018-12-15T13:15:03.724Z,1.79
2018-12-15T13:16:04.057Z,1.79
2018-12-15T13:17:03.695Z,1.84
2018-12-15T13:18:03.736Z,1.79
2018-12-15T13:19:04.156Z,1.78
2018-12-15T13:20:09.492Z,1.76
2018-12-15T13:21:03.617Z,1.74
2018-12-15T13:22:03.862Z,1.81
2018-12-15T13:23:03.700Z,1.75
2018-12-15T13:24:03.639Z,1.63
2018-12-15T13:25:03.720Z,1.63
2018-12-15T13:26:04.310Z,1.66
2018-12-15T13:27:05.027Z,1.67
2018-12-15T13:28:03.729Z,1.7
2018-12-15T13:29:03.941Z,1.76
2018-12-15T13:30:06.898Z,1.74
2018-12-15T13:31:05.056Z,1.67
2018-12-15T13:32:03.731Z,1.7
2018-12-15T13:33:03.741Z,1.66
2018-12-15T13:34:03.807Z,1.7
2018-12-15T13:35:03.750Z,1.75
2018-12-15T13:36:03.952Z,1.67
2018-12-15T13:37:03.724Z,1.67
2018-12-15T13:38:03.835Z,1.67
2018-12-15T13:39:03.654Z,1.71
2018-12-15T13:40:03.643Z,1.71
2018-12-15T13:41:03.728Z,1.71
2018-12-15T13:42:03.686Z,1.64
2018-12-15T13:43:03.931Z,1.74
2018-12-15T13:44:03.729Z,1.79
2018-12-15T13:45:03.677Z,1.74
2018-12-15T13:46:11.547Z,1.76
2018-12-15T13:47:03.651Z,1.63
2018-12-15T13:48:06.051Z,1.74
2018-12-15T13:49:03.690Z,1.71
2018-12-15T13:50:09.933Z,1.63
2018-12-15T13:51:03.746Z,1.67
2018-12-15T13:52:03.673Z,1.71
2018-12-15T13:53:03.794Z,1.63
2018-12-15T13:54:03.656Z,1.64
2018-12-15T13:55:03.747Z,1.63
2018-12-15T13:56:03.759Z,1.6
2018-12-15T13:57:03.726Z,1.5
2018-12-15T13:58:03.870Z,1.63
2018-12-15T13:59:03.803Z,1.68